Time;durP1;ratioP1;P1;durP2;ratioP2;P2;SDS_P1;SDS_P2;PMS_P1;PMS_P2;Temp;Humidity;BMP_temperature;BMP_pressure;BME280_temperature;BME280_humidity;BME280_pressure;Samples;Min_cycle;Max_cycle;Signal;HPM_P1;HPM_P2
2022/12/16 00:00:37;;;;;;;67.93;36.22;;;-1.60;99.90;;;;;;5098897;28;20092;-70
2022/12/16 00:03:03;;;;;;;63.85;35.50;;;-1.60;99.90;;;;;;5099100;28;20035;-70
2022/12/16 00:05:29;;;;;;;63.60;35.38;;;-1.60;99.90;;;;;;5082190;28;20047;-70
2022/12/16 00:07:55;;;;;;;62.40;35.83;;;-1.40;99.90;;;;;;5099621;28;20480;-73
2022/12/16 00:10:22;;;;;;;66.50;38.00;;;-1.40;99.90;;;;;;5082474;28;20033;-70
2022/12/16 00:12:48;;;;;;;60.13;36.83;;;-1.40;99.90;;;;;;5098027;28;20036;-70
2022/12/16 00:15:14;;;;;;;59.58;35.78;;;-1.50;99.90;;;;;;5098950;28;20281;-70
2022/12/16 00:17:39;;;;;;;62.83;36.03;;;-1.60;99.90;;;;;;5099936;28;20314;-71
2022/12/16 00:20:06;;;;;;;70.53;38.47;;;-1.70;99.90;;;;;;5099435;28;20035;-70
2022/12/16 00:22:32;;;;;;;65.57;37.55;;;-1.70;99.90;;;;;;5097583;28;20044;-70
2022/12/16 00:24:57;;;;;;;67.38;39.97;;;-1.70;99.90;;;;;;5098329;28;20407;-70
2022/12/16 00:27:23;;;;;;;65.47;39.65;;;-1.70;99.90;;;;;;5097693;28;20415;-70
2022/12/16 00:29:49;;;;;;;71.25;39.25;;;-1.60;99.90;;;;;;5098280;28;20059;-71
2022/12/16 00:32:15;;;;;;;66.95;38.42;;;-1.50;99.90;;;;;;5098058;28;20028;-70
2022/12/16 00:34:41;;;;;;;71.78;41.10;;;-1.60;99.90;;;;;;5098434;28;20096;-69
2022/12/16 00:37:06;;;;;;;74.20;38.83;;;-1.70;99.90;;;;;;5097349;28;20020;-70
2022/12/16 00:39:32;;;;;;;76.32;39.72;;;-1.70;99.90;;;;;;5096790;28;20069;-69
2022/12/16 00:41:58;;;;;;;68.13;40.08;;;-1.70;99.90;;;;;;5080626;28;20093;-70
2022/12/16 00:44:24;;;;;;;74.53;38.60;;;-1.70;99.90;;;;;;5096047;28;20047;-69
2022/12/16 00:46:49;;;;;;;67.60;39.25;;;-1.60;99.90;;;;;;5096737;28;20105;-68
2022/12/16 00:49:15;;;;;;;67.32;39.10;;;-1.60;99.90;;;;;;5096299;28;20051;-69
2022/12/16 00:51:41;;;;;;;72.05;38.83;;;-1.60;99.90;;;;;;5096228;28;20422;-69
2022/12/16 00:54:07;;;;;;;70.32;41.08;;;-1.60;99.90;;;;;;5079264;28;20081;-69
2022/12/16 00:56:33;;;;;;;75.43;40.22;;;-1.60;99.90;;;;;;5096614;28;20020;-68
2022/12/16 00:58:58;;;;;;;71.45;40.17;;;-1.70;99.90;;;;;;5096740;28;20034;-70
2022/12/16 01:01:24;;;;;;;70.35;38.60;;;-1.80;99.90;;;;;;5096749;28;20028;-68
2022/12/16 01:03:50;;;;;;;69.57;39.72;;;-1.90;99.90;;;;;;5096737;28;20028;-69
2022/12/16 01:06:17;;;;;;;72.43;39.38;;;-1.90;99.90;;;;;;5096323;28;20111;-68
2022/12/16 01:08:49;;;;;;;66.75;38.80;;;-2.00;99.90;;;;;;5078937;28;20097;-69
2022/12/16 01:11:16;;;;;;;;;;;-2.00;99.90;;;;;;5096969;28;20043;-69
2022/12/16 01:13:43;;;;;;;63.05;35.28;;;-2.00;99.90;;;;;;5096635;28;19923;-69
2022/12/16 01:16:08;;;;;;;68.50;37.00;;;-2.00;99.90;;;;;;5095908;28;20040;-72
2022/12/16 01:18:35;;;;;;;75.68;39.28;;;-1.90;99.90;;;;;;5096405;28;20277;-69
2022/12/16 01:21:06;;;;;;;69.32;38.45;;;-1.80;99.90;;;;;;5096603;28;20453;-70
2022/12/16 01:23:32;;;;;;;67.13;38.05;;;-1.60;99.90;;;;;;5098834;28;20040;-69
2022/12/16 01:26:00;;;;;;;67.95;38.95;;;-1.60;99.90;;;;;;5100209;28;20043;-70
2022/12/16 01:28:29;;;;;;;64.65;38.08;;;-1.70;99.90;;;;;;5100188;28;20063;-71
2022/12/16 01:31:00;;;;;;;71.13;36.47;;;-1.50;99.90;;;;;;5100074;28;20077;-70
2022/12/16 01:33:28;;;;;;;64.57;37.78;;;-1.50;99.90;;;;;;5100159;28;20365;-70
2022/12/16 01:36:06;;;;;;;67.53;37.63;;;-1.50;99.90;;;;;;5082353;28;20020;-71
2022/12/16 01:38:32;;;;;;;60.85;36.45;;;-1.50;99.90;;;;;;5099820;28;20028;-69
2022/12/16 01:40:58;;;;;;;63.85;37.20;;;-1.50;99.90;;;;;;5099106;28;20049;-70
2022/12/16 01:43:30;;;;;;;66.28;38.00;;;-1.50;99.90;;;;;;5099779;28;20109;-69
2022/12/16 01:46:11;;;;;;;68.18;37.97;;;-1.40;99.90;;;;;;5098970;28;20024;-70
2022/12/16 01:48:43;;;;;;;63.83;36.63;;;-1.30;99.90;;;;;;5099612;28;20045;-69
2022/12/16 01:51:22;;;;;;;66.78;36.13;;;-1.40;99.90;;;;;;5099667;28;20115;-69
2022/12/16 01:53:52;;;;;;;63.20;36.40;;;-1.30;99.90;;;;;;5099095;28;20024;-69
2022/12/16 01:56:20;;;;;;;67.20;36.53;;;-1.30;99.90;;;;;;5099097;28;20288;-69
2022/12/16 01:58:46;;;;;;;68.15;37.88;;;-1.20;99.90;;;;;;5099594;28;20048;-68
2022/12/16 02:01:13;;;;;;;64.72;37.40;;;-1.00;99.90;;;;;;5081954;28;20047;-69
2022/12/16 02:03:41;;;;;;;63.90;36.90;;;-0.90;99.90;;;;;;5099701;28;20410;-69
2022/12/16 02:06:07;;;;;;;63.15;37.58;;;-0.80;99.90;;;;;;5099381;28;20028;-70
2022/12/16 02:08:33;;;;;;;61.95;36.67;;;-0.70;99.90;;;;;;5065126;28;20352;-70
2022/12/16 02:11:08;;;;;;;62.10;35.58;;;-0.70;99.90;;;;;;5099576;28;20028;-69
2022/12/16 02:14:01;;;;;;;59.58;34.65;;;-0.50;99.90;;;;;;5099482;28;20035;-70
2022/12/16 02:16:47;;;;;;;58.38;33.85;;;-0.40;99.90;;;;;;5098776;28;20036;-70
2022/12/16 02:20:05;;;;;;;57.10;33.83;;;-0.30;99.90;;;;;;5099295;28;20063;-70
2022/12/16 02:22:34;;;;;;;59.25;33.65;;;-0.20;99.90;;;;;;5099081;28;20391;-70
2022/12/16 02:25:12;;;;;;;61.25;34.45;;;-0.10;99.90;;;;;;5099191;28;20273;-71
2022/12/16 02:27:49;;;;;;;55.45;32.97;;;0.00;99.90;;;;;;5098128;28;20093;-71
2022/12/16 02:30:40;;;;;;;57.75;33.25;;;0.00;99.90;;;;;;5081273;28;20115;-69
2022/12/16 02:33:28;;;;;;;54.55;33.20;;;0.10;99.90;;;;;;5098719;28;20020;-71
2022/12/16 02:36:27;;;;;;;60.92;33.70;;;0.20;99.90;;;;;;5098960;28;20035;-70
2022/12/16 02:39:04;;;;;;;58.03;33.67;;;0.30;99.90;;;;;;5084791;28;20040;-71
2022/12/16 02:41:30;;;;;;;56.50;32.65;;;0.30;99.90;;;;;;5098443;28;20053;-70
2022/12/16 02:44:02;;;;;;;58.92;33.67;;;0.40;99.90;;;;;;5098028;28;20056;-70
2022/12/16 02:46:30;;;;;;;54.88;33.70;;;0.50;99.90;;;;;;5099405;28;20039;-70
2022/12/16 02:48:56;;;;;;;53.67;32.38;;;0.50;99.90;;;;;;5098546;28;20036;-70
2022/12/16 02:51:24;;;;;;;51.30;31.55;;;0.60;99.90;;;;;;5098960;28;20043;-71
2022/12/16 02:53:52;;;;;;;57.40;33.55;;;0.60;99.90;;;;;;5099257;28;20032;-71
2022/12/16 02:56:30;;;;;;;53.90;32.30;;;0.60;99.90;;;;;;5100005;28;20287;-71
2022/12/16 02:59:30;;;;;;;51.70;30.92;;;0.70;99.90;;;;;;5098769;28;20032;-70
2022/12/16 03:02:11;;;;;;;52.92;31.77;;;0.70;99.90;;;;;;5099464;28;20042;-71
2022/12/16 03:04:45;;;;;;;56.03;32.63;;;0.80;99.90;;;;;;5099056;28;20145;-70
2022/12/16 03:07:13;;;;;;;52.67;31.33;;;0.90;99.90;;;;;;5099507;28;20054;-71
2022/12/16 03:09:41;;;;;;;49.95;30.00;;;0.90;99.90;;;;;;5100473;28;20054;-70
2022/12/16 03:12:11;;;;;;;48.85;29.88;;;0.90;99.90;;;;;;5100481;28;20371;-72
2022/12/16 03:14:40;;;;;;;46.67;28.08;;;1.00;99.90;;;;;;5101415;28;20032;-70
2022/12/16 03:17:08;;;;;;;58.83;28.80;;;1.10;99.90;;;;;;5101580;28;20031;-73
2022/12/16 03:19:36;;;;;;;52.05;27.50;;;1.20;99.90;;;;;;5101050;28;20036;-72
2022/12/16 03:22:13;;;;;;;46.10;26.90;;;1.20;99.90;;;;;;5100761;28;20054;-71
2022/12/16 03:24:40;;;;;;;44.17;25.92;;;1.30;99.90;;;;;;5100890;28;20451;-71
2022/12/16 03:27:33;;;;;;;46.83;27.15;;;1.30;99.90;;;;;;5099876;28;20039;-72
2022/12/16 03:30:08;;;;;;;;;;;1.50;99.90;;;;;;5100297;28;20024;-70
2022/12/16 03:32:36;;;;;;;41.03;22.98;;;1.50;99.90;;;;;;5099421;28;19935;-70
2022/12/16 03:35:14;;;;;;;47.92;24.85;;;1.60;99.90;;;;;;5099719;28;20027;-70
2022/12/16 03:37:43;;;;;;;43.90;25.10;;;1.70;99.90;;;;;;5098524;28;20035;-71
2022/12/16 03:40:10;;;;;;;43.67;24.73;;;1.70;99.90;;;;;;5099971;28;20051;-70
2022/12/16 03:42:37;;;;;;;47.50;25.42;;;1.70;99.90;;;;;;5100104;28;20047;-72
2022/12/16 03:45:05;;;;;;;46.22;24.17;;;1.80;99.90;;;;;;5100100;28;20031;-73
2022/12/16 03:47:31;;;;;;;43.58;25.70;;;1.80;99.90;;;;;;5098647;28;20103;-71
2022/12/16 03:49:57;;;;;;;45.67;24.35;;;1.90;99.90;;;;;;5099490;28;20067;-69
2022/12/16 03:52:22;;;;;;;41.50;23.35;;;1.90;99.90;;;;;;5100623;28;20120;-69
2022/12/16 03:54:48;;;;;;;40.83;22.67;;;1.90;99.90;;;;;;5098554;28;20412;-70
2022/12/16 03:57:14;;;;;;;41.03;23.63;;;2.00;99.90;;;;;;5098967;28;20078;-70
2022/12/16 03:59:40;;;;;;;39.05;22.20;;;2.00;99.90;;;;;;5098990;28;20276;-72
2022/12/16 04:02:06;;;;;;;40.30;21.35;;;2.10;99.90;;;;;;5081256;28;20064;-70
2022/12/16 04:04:31;;;;;;;36.50;22.35;;;2.20;99.90;;;;;;5098850;28;20046;-72
2022/12/16 04:09:41;;;;;;;34.38;21.38;;;2.20;99.90;;;;;;5083612;28;20430;-74
2022/12/16 04:25:56;;;;;;;35.38;20.95;;;2.40;99.90;;;;;;5098549;28;20048;-72
2022/12/16 04:28:22;;;;;;;33.67;20.20;;;2.50;99.90;;;;;;5097639;28;20100;-74
2022/12/16 04:30:48;;;;;;;29.52;19.85;;;2.40;99.90;;;;;;5097659;28;20085;-72
